Terminal Aerodrome Forecast
Issued by NWS Cleveland, OH

Home | Current Version | Previous Version | Graphics & Text | Print | Product List | Glossary On
Versions: 1 2 3 4 5 6 7 8 9 10 11 12 13 14
666
FTUS41 KCLE 252339
TAFYNG
TAF
KYNG 252339Z 2600/2624 29010KT P6SM BKN080
     FM260200 24006KT P6SM SCT080
     FM261400 26012G20KT P6SM BKN040
     FM261800 26015G22KT P6SM VCSH BKN050=

USA.gov is the U.S. government's official web portal to all federal, state and local government web resources and services.